Time;durP1;ratioP1;P1;durP2;ratioP2;P2;SDS_P1;SDS_P2;PMS_P1;PMS_P2;Temp;Humidity;BMP_temperature;BMP_pressure;BME280_temperature;BME280_humidity;BME280_pressure;Samples;Min_cycle;Max_cycle;Signal;HPM_P1;HPM_P2
2022/06/29 00:01:57;;;;;;;8.88;7.82;;;;;;;16.17;78.94;95149.97;5111981;28;20034;-75
2022/06/29 00:04:22;;;;;;;8.32;7.18;;;;;;;16.16;78.92;95150.09;5112518;28;20023;-75
2022/06/29 00:06:48;;;;;;;9.60;7.45;;;;;;;16.10;78.80;95143.66;5110892;28;20034;-75
2022/06/29 00:09:13;;;;;;;8.82;7.93;;;;;;;16.06;78.87;95148.41;5092312;28;20036;-75
2022/06/29 00:11:39;;;;;;;7.93;7.15;;;;;;;16.09;78.21;95158.56;5112068;28;20027;-75
2022/06/29 00:14:04;;;;;;;10.48;7.63;;;;;;;16.02;78.52;95156.75;5110892;28;20114;-75
2022/06/29 00:16:30;;;;;;;8.85;7.50;;;;;;;15.89;78.78;95136.16;5076142;28;20100;-75
2022/06/29 00:18:55;;;;;;;8.25;7.20;;;;;;;16.01;77.32;95165.56;5109893;28;20043;-75
2022/06/29 00:21:21;;;;;;;8.40;7.32;;;;;;;15.81;77.83;95154.41;5093268;28;20039;-75
2022/06/29 00:23:46;;;;;;;11.10;7.68;;;;;;;15.76;78.79;95148.81;5110841;28;20046;-75
2022/06/29 00:26:12;;;;;;;9.35;7.55;;;;;;;15.78;79.25;95150.31;5110136;28;20077;-75
2022/06/29 00:28:37;;;;;;;9.90;8.20;;;;;;;15.67;79.11;95134.78;5088530;28;20482;-75
2022/06/29 00:31:02;;;;;;;8.55;7.65;;;;;;;15.77;78.98;95145.25;5090117;28;20114;-75
2022/06/29 00:33:28;;;;;;;8.55;7.43;;;;;;;15.77;78.53;95158.34;5073334;28;20405;-75
2022/06/29 00:35:53;;;;;;;8.18;7.38;;;;;;;15.75;78.64;95150.63;5073173;28;20482;-75
2022/06/29 00:38:19;;;;;;;8.30;6.80;;;;;;;15.77;78.91;95153.91;5107695;28;20028;-75
2022/06/29 00:40:44;;;;;;;11.02;7.30;;;;;;;15.81;78.25;95150.00;5108829;28;20022;-75
2022/06/29 00:43:10;;;;;;;8.43;7.15;;;;;;;15.72;78.13;95134.38;5110512;28;20404;-75
2022/06/29 00:45:35;;;;;;;7.72;6.93;;;;;;;15.71;78.26;95135.34;5091690;28;20074;-75
2022/06/29 00:48:01;;;;;;;9.93;7.10;;;;;;;15.84;77.07;95144.47;5110415;28;20032;-75
2022/06/29 00:50:29;;;;;;;7.40;6.70;;;;;;;15.80;77.32;95145.75;5093142;28;20047;-75
2022/06/29 00:52:55;;;;;;;7.05;6.35;;;;;;;15.83;77.46;95142.00;5089663;28;20063;-75
2022/06/29 00:55:20;;;;;;;8.15;6.90;;;;;;;15.80;77.95;95129.22;5108368;28;20067;-75
2022/06/29 00:57:46;;;;;;;8.35;6.93;;;;;;;15.73;78.10;95128.97;5092088;28;20451;-75
2022/06/29 01:00:12;;;;;;;7.80;7.00;;;;;;;15.75;78.30;95129.66;5092157;28;20027;-75
2022/06/29 01:02:38;;;;;;;10.63;7.55;;;;;;;15.63;78.94;95129.03;5075471;28;20031;-75
2022/06/29 01:05:04;;;;;;;8.40;7.53;;;;;;;15.57;78.47;95134.03;5108532;28;20386;-75
2022/06/29 01:07:31;;;;;;;9.20;6.82;;;;;;;15.52;78.64;95124.03;5088345;28;20108;-75
2022/06/29 01:09:56;;;;;;;7.53;6.72;;;;;;;15.39;78.79;95131.44;5119198;28;20565;-75
2022/06/29 01:12:22;;;;;;;7.80;7.10;;;;;;;15.39;78.99;95128.81;5111217;28;20122;-75
2022/06/29 01:14:48;;;;;;;9.18;6.65;;;;;;;15.34;78.95;95120.56;5093040;28;20016;-75
2022/06/29 01:17:14;;;;;;;7.22;6.60;;;;;;;15.33;79.06;95124.19;5091556;28;20156;-74
2022/06/29 01:19:42;;;;;;;7.72;7.03;;;;;;;15.22;79.43;95090.38;5089376;28;20036;-75
2022/06/29 01:22:15;;;;;;;11.30;6.68;;;;;;;15.27;79.72;95115.13;5091980;28;20074;-75
2022/06/29 01:24:41;;;;;;;7.65;6.85;;;;;;;15.13;79.26;95081.63;5109942;28;20027;-75
2022/06/29 01:27:06;;;;;;;7.82;7.13;;;;;;;15.24;79.75;95114.56;5093527;28;20065;-75
2022/06/29 01:29:32;;;;;;;8.02;7.25;;;;;;;15.21;80.03;95115.72;5113719;28;20057;-75
2022/06/29 01:31:58;;;;;;;8.10;6.70;;;;;;;15.34;79.35;95118.78;5115091;28;20023;-75
2022/06/29 01:34:24;;;;;;;8.98;6.50;;;;;;;15.28;79.16;95098.44;5113594;28;20031;-75
2022/06/29 01:36:50;;;;;;;7.40;6.40;;;;;;;15.37;78.98;95104.56;5096812;28;20023;-75
2022/06/29 01:39:15;;;;;;;11.00;6.88;;;;;;;15.47;78.60;95122.84;5129335;27;20448;-75
2022/06/29 01:41:41;;;;;;;8.73;6.78;;;;;;;15.43;78.29;95124.91;5113513;28;20503;-75
2022/06/29 01:44:06;;;;;;;9.48;7.10;;;;;;;15.36;78.41;95122.06;5112966;28;20031;-75
2022/06/29 01:46:32;;;;;;;8.82;8.02;;;;;;;15.40;79.33;95127.81;5096678;28;20073;-75
2022/06/29 01:48:57;;;;;;;9.90;7.93;;;;;;;15.45;79.55;95128.22;5113561;28;20512;-75
2022/06/29 01:51:22;;;;;;;11.57;7.68;;;;;;;15.38;79.07;95106.22;5113484;28;20023;-75
2022/06/29 01:53:48;;;;;;;7.63;6.82;;;;;;;15.29;78.41;95120.19;5114405;28;20024;-75
2022/06/29 01:56:14;;;;;;;8.90;6.88;;;;;;;15.40;78.02;95118.19;5096442;28;20054;-75
2022/06/29 01:58:39;;;;;;;7.68;5.90;;;;;;;15.38;77.93;95104.44;5113719;28;20043;-75
2022/06/29 02:01:05;;;;;;;7.47;6.65;;;;;;;15.44;77.69;95116.09;5096356;28;20512;-75
2022/06/29 02:03:30;;;;;;;7.30;6.45;;;;;;;15.46;77.68;95114.16;5112830;28;20035;-75
2022/06/29 02:05:55;;;;;;;6.72;6.13;;;;;;;15.20;78.16;95099.16;5096297;28;20500;-74
2022/06/29 02:08:21;;;;;;;10.20;6.60;;;;;;;15.28;78.25;95108.09;5114688;27;20409;-75
2022/06/29 02:10:47;;;;;;;6.90;6.20;;;;;;;15.25;78.59;95087.47;5113121;28;20027;-75
2022/06/29 02:13:12;;;;;;;6.35;5.75;;;;;;;15.35;78.26;95096.03;5112777;28;20040;-75
2022/06/29 02:15:38;;;;;;;8.13;6.38;;;;;;;15.13;78.24;95085.06;5111794;28;20046;-75
2022/06/29 02:18:03;;;;;;;7.43;6.18;;;;;;;15.22;79.01;95095.59;5092243;28;20047;-75
2022/06/29 02:20:29;;;;;;;8.52;6.70;;;;;;;15.24;79.13;95096.25;5113740;28;20579;-75
2022/06/29 02:22:54;;;;;;;8.55;7.03;;;;;;;15.16;79.10;95078.72;5112801;28;20062;-74
2022/06/29 02:25:20;;;;;;;7.38;6.57;;;;;;;15.22;79.25;95088.56;5113012;28;20076;-75
2022/06/29 02:27:46;;;;;;;7.85;6.43;;;;;;;15.28;78.83;95079.31;5112981;28;20050;-74
2022/06/29 02:30:15;;;;;;;8.25;6.45;;;;;;;15.27;79.08;95086.34;5113584;28;20031;-75
2022/06/29 02:35:25;;;;;;;7.57;6.60;;;;;;;15.15;78.57;95075.25;5113183;28;20027;-75
2022/06/29 02:37:51;;;;;;;8.48;6.65;;;;;;;15.13;78.13;95065.91;5094553;28;20023;-74
2022/06/29 02:40:16;;;;;;;9.48;6.03;;;;;;;15.15;78.59;95084.88;5092052;28;20463;-75
2022/06/29 02:42:42;;;;;;;7.15;6.45;;;;;;;15.14;77.92;95078.84;5092245;28;20028;-75
2022/06/29 02:45:07;;;;;;;9.30;6.05;;;;;;;15.01;78.72;95062.69;5103198;28;20481;-75
2022/06/29 02:47:33;;;;;;;11.20;6.30;;;;;;;14.98;78.96;95068.22;5095745;28;20516;-74
2022/06/29 02:49:58;;;;;;;7.78;5.80;;;;;;;14.96;79.24;95057.09;5078601;28;20028;-74
2022/06/29 02:52:24;;;;;;;6.97;6.25;;;;;;;15.08;78.68;95068.16;5112486;28;20036;-74
2022/06/29 02:54:49;;;;;;;7.60;6.90;;;;;;;15.06;78.38;95059.63;5073363;28;20035;-75
2022/06/29 02:57:15;;;;;;;9.35;7.95;;;;;;;15.13;78.88;95065.91;5074897;28;20093;-75
2022/06/29 02:59:40;;;;;;;7.22;6.47;;;;;;;15.14;79.36;95055.28;5091909;28;20027;-75
2022/06/29 03:02:06;;;;;;;7.82;6.70;;;;;;;15.19;78.56;95049.63;5098978;28;20505;-75
2022/06/29 03:04:34;;;;;;;6.55;5.90;;;;;;;15.20;78.10;95046.84;5112262;28;20024;-75
2022/06/29 03:07:00;;;;;;;6.70;6.00;;;;;;;15.37;76.81;95068.75;5111601;28;20517;-75
2022/06/29 03:09:25;;;;;;;7.07;6.30;;;;;;;15.33;77.26;95071.81;5077782;28;20051;-74
2022/06/29 03:11:51;;;;;;;8.57;6.75;;;;;;;15.34;76.77;95063.81;5095211;28;20437;-74
2022/06/29 03:14:16;;;;;;;7.95;6.82;;;;;;;15.27;77.83;95062.78;5095096;28;20028;-75
2022/06/29 03:16:42;;;;;;;10.90;8.05;;;;;;;15.25;78.37;95061.28;5092406;28;20078;-75
2022/06/29 03:19:07;;;;;;;9.63;8.27;;;;;;;15.14;78.79;95057.91;5074547;28;20032;-75
2022/06/29 03:21:33;;;;;;;9.73;8.32;;;;;;;15.19;79.31;95073.16;5074531;28;20035;-75
2022/06/29 03:23:58;;;;;;;9.15;7.47;;;;;;;15.11;79.07;95075.72;5108477;28;20471;-75
2022/06/29 03:26:24;;;;;;;8.23;7.43;;;;;;;15.16;79.39;95076.09;5128731;27;20024;-74
2022/06/29 03:28:52;;;;;;;12.60;7.95;;;;;;;15.11;79.64;95068.69;5111985;28;20063;-75
2022/06/29 03:31:19;;;;;;;11.90;8.02;;;;;;;15.22;79.76;95070.25;5112067;27;20020;-75
2022/06/29 03:33:45;;;;;;;8.50;7.60;;;;;;;15.36;79.53;95082.00;5093775;28;20031;-74
2022/06/29 03:36:11;;;;;;;9.23;7.15;;;;;;;15.32;79.25;95062.31;5112545;28;20031;-75
2022/06/29 03:38:36;;;;;;;9.75;7.85;;;;;;;15.42;79.33;95068.31;5093911;28;20421;-75
2022/06/29 03:41:02;;;;;;;12.38;7.22;;;;;;;15.48;79.28;95064.25;5094374;28;20031;-75
2022/06/29 03:43:28;;;;;;;9.95;7.13;;;;;;;15.56;79.24;95073.00;5112974;28;20032;-75
2022/06/29 03:45:53;;;;;;;11.73;7.50;;;;;;;15.63;78.67;95055.72;5093935;28;20032;-75
2022/06/29 03:48:19;;;;;;;8.07;6.43;;;;;;;15.73;78.42;95067.94;5110650;27;20042;-74
2022/06/29 03:50:44;;;;;;;5.75;5.10;;;;;;;15.61;76.58;95062.91;5098730;28;20028;-74
2022/06/29 03:53:10;;;;;;;6.70;4.90;;;;;;;15.79;75.03;95077.78;5104168;28;20061;-75
2022/06/29 03:55:35;;;;;;;5.43;4.93;;;;;;;15.80;75.65;95076.84;5111896;27;20219;-74
2022/06/29 03:58:00;;;;;;;5.63;4.78;;;;;;;15.92;75.37;95072.97;5094597;27;20031;-75
2022/06/29 04:00:26;;;;;;;5.10;4.70;;;;;;;16.03;75.25;95067.47;5127719;27;20024;-74
2022/06/29 04:02:51;;;;;;;5.13;4.63;;;;;;;16.06;75.07;95064.56;5111131;28;20084;-75
2022/06/29 04:05:17;;;;;;;5.70;5.18;;;;;;;16.09;74.77;95061.63;5093985;28;20080;-75
2022/06/29 04:07:42;;;;;;;5.55;4.80;;;;;;;16.11;75.07;95065.91;5110986;28;20023;-75
2022/06/29 04:10:08;;;;;;;4.97;4.57;;;;;;;16.27;74.58;95060.75;5108554;28;20039;-74
2022/06/29 04:12:34;;;;;;;5.00;4.47;;;;;;;17.09;71.73;95056.66;5104095;27;20027;-74
2022/06/29 04:15:00;;;;;;;4.93;4.43;;;;;;;17.93;69.02;95044.22;5085874;28;20539;-73
2022/06/29 04:17:26;;;;;;;4.38;3.92;;;;;;;18.71;65.77;95047.94;5087878;28;20048;-73
2022/06/29 04:19:52;;;;;;;4.20;3.80;;;;;;;19.40;64.13;95050.72;5110354;28;20016;-73
2022/06/29 04:22:18;;;;;;;5.00;3.90;;;;;;;20.22;60.61;95061.38;5075501;28;20506;-73
2022/06/29 04:24:44;;;;;;;5.80;3.65;;;;;;;20.86;58.27;95052.94;5111586;28;20030;-73
2022/06/29 04:27:09;;;;;;;3.90;3.60;;;;;;;21.62;56.32;95044.66;5110211;28;20035;-73
2022/06/29 04:29:35;;;;;;;5.97;3.80;;;;;;;22.20;54.59;95037.38;5110530;28;20043;-73
2022/06/29 04:32:01;;;;;;;4.43;3.40;;;;;;;22.86;52.68;95028.19;5109793;28;20043;-74
2022/06/29 04:34:27;;;;;;;4.43;3.40;;;;;;;23.45;51.74;95019.59;5088781;28;20035;-73
2022/06/29 04:36:52;;;;;;;3.85;3.28;;;;;;;24.01;50.07;95024.53;5101106;28;20417;-73
2022/06/29 04:39:18;;;;;;;4.13;3.60;;;;;;;24.44;49.60;95016.16;5090553;28;20027;-73
2022/06/29 04:41:43;;;;;;;5.43;3.50;;;;;;;24.87;47.42;95012.94;5109752;28;20024;-74
2022/06/29 04:44:09;;;;;;;4.20;3.33;;;;;;;25.06;46.27;95002.44;5110027;28;20031;-73
2022/06/29 04:46:34;;;;;;;3.45;3.00;;;;;;;25.17;45.15;95012.44;5089610;28;20445;-73
2022/06/29 04:49:00;;;;;;;4.60;3.33;;;;;;;23.85;48.53;95017.03;5108093;28;20149;-73
2022/06/29 04:51:29;;;;;;;7.07;4.47;;;;;;;22.83;51.55;95017.97;5088512;28;20076;-73
2022/06/29 04:53:55;;;;;;;10.00;5.32;;;;;;;22.28;54.35;95029.28;5093611;28;20038;-74
2022/06/29 04:56:22;;;;;;;5.07;4.20;;;;;;;22.31;54.88;95038.69;5089243;28;20421;-72
2022/06/29 04:58:48;;;;;;;6.82;5.82;;;;;;;21.86;55.88;95041.59;5095525;28;20074;-73
2022/06/29 05:01:18;;;;;;;7.47;5.70;;;;;;;21.98;57.65;95041.06;5107978;28;20063;-74
2022/06/29 05:03:43;;;;;;;8.50;7.63;;;;;;;22.00;57.88;95055.72;5101764;28;20106;-73
2022/06/29 05:06:09;;;;;;;13.95;7.50;;;;;;;21.93;58.39;95054.06;5108056;28;20079;-73
2022/06/29 05:08:34;;;;;;;10.75;8.63;;;;;;;21.86;57.35;95057.44;5108452;28;20473;-73
2022/06/29 05:11:00;;;;;;;14.95;9.07;;;;;;;21.69;58.60;95061.38;5105993;28;20389;-73
2022/06/29 05:13:25;;;;;;;10.60;8.50;;;;;;;21.52;59.91;95049.44;5107731;28;20039;-74
2022/06/29 05:15:50;;;;;;;9.63;8.73;;;;;;;21.59;60.07;95060.84;5087571;28;20044;-74
2022/06/29 05:18:16;;;;;;;9.57;8.68;;;;;;;21.63;60.01;95052.38;5089339;28;20039;-74
2022/06/29 05:20:42;;;;;;;10.10;9.10;;;;;;;21.70;59.53;95057.72;5104698;28;20024;-74
2022/06/29 05:23:09;;;;;;;10.43;9.30;;;;;;;21.45;58.52;95045.88;5106251;28;20468;-74
2022/06/29 05:25:35;;;;;;;10.38;9.48;;;;;;;21.60;60.40;95051.94;5105066;28;20042;-74
2022/06/29 05:28:00;;;;;;;11.93;9.52;;;;;;;21.59;61.10;95050.28;5121286;28;20036;-74
2022/06/29 05:30:26;;;;;;;10.82;9.10;;;;;;;21.61;60.54;95038.53;5069949;28;20446;-75
2022/06/29 05:32:52;;;;;;;10.40;9.20;;;;;;;21.66;60.27;95053.00;5108948;28;20031;-74
2022/06/29 05:35:17;;;;;;;11.32;9.77;;;;;;;21.47;60.71;95047.34;5089714;27;20122;-74
2022/06/29 05:37:46;;;;;;;8.30;7.28;;;;;;;21.45;60.94;95053.81;5104471;28;20436;-74
2022/06/29 05:40:11;;;;;;;7.20;5.38;;;;;;;21.44;59.35;95049.56;5104514;28;20028;-74
2022/06/29 05:42:37;;;;;;;6.45;4.60;;;;;;;21.45;58.79;95040.59;5105178;28;20042;-76
2022/06/29 05:45:02;;;;;;;8.48;6.70;;;;;;;21.44;60.03;95046.91;5105118;28;20031;-74
2022/06/29 05:47:28;;;;;;;8.10;6.32;;;;;;;21.20;59.19;95040.94;5104011;28;20039;-74
2022/06/29 05:49:57;;;;;;;10.50;7.05;;;;;;;21.29;61.10;95045.13;5104221;28;20054;-74
2022/06/29 05:52:23;;;;;;;8.15;7.35;;;;;;;21.43;61.96;95051.38;5106270;28;20024;-74
2022/06/29 05:54:48;;;;;;;8.30;7.50;;;;;;;21.51;61.58;95048.63;5088164;28;20035;-74
2022/06/29 05:57:14;;;;;;;14.85;9.02;;;;;;;21.54;61.60;95050.88;5105576;28;20032;-74
2022/06/29 05:59:40;;;;;;;10.60;8.70;;;;;;;21.53;60.58;95058.97;5086375;28;20045;-77
2022/06/29 06:02:05;;;;;;;9.52;8.50;;;;;;;21.65;61.15;95068.06;5105828;28;20052;-74
2022/06/29 06:04:31;;;;;;;10.77;8.18;;;;;;;21.66;60.45;95067.03;5107095;28;20051;-74
2022/06/29 06:06:56;;;;;;;12.50;9.63;;;;;;;21.72;61.20;95068.91;5105988;28;20035;-74
2022/06/29 06:09:26;;;;;;;10.10;9.05;;;;;;;21.95;61.29;95073.19;5104937;28;20028;-74
2022/06/29 06:11:53;;;;;;;7.82;6.70;;;;;;;21.93;59.32;95065.47;5105649;28;20035;-74
2022/06/29 06:14:18;;;;;;;8.18;7.00;;;;;;;21.98;60.76;95071.00;5109074;28;20034;-74
2022/06/29 06:16:43;;;;;;;12.85;8.95;;;;;;;21.97;60.04;95065.88;5108886;28;20043;-74
2022/06/29 06:19:09;;;;;;;13.52;9.48;;;;;;;21.93;60.34;95083.16;5107284;28;20039;-74
2022/06/29 06:21:37;;;;;;;14.68;9.73;;;;;;;21.91;60.72;95077.22;5091178;28;20027;-74
2022/06/29 06:24:03;;;;;;;11.98;9.18;;;;;;;21.96;59.78;95074.84;5108657;28;20039;-74
2022/06/29 06:26:29;;;;;;;11.45;8.68;;;;;;;21.90;60.92;95073.78;5110315;28;20024;-74
2022/06/29 06:28:54;;;;;;;10.10;8.38;;;;;;;21.92;60.70;95068.28;5107244;28;20043;-74
2022/06/29 06:31:20;;;;;;;12.00;8.65;;;;;;;21.78;59.67;95057.59;5090397;28;20035;-77
2022/06/29 06:33:46;;;;;;;11.70;9.15;;;;;;;21.86;61.92;95061.91;5088454;28;20031;-74
2022/06/29 06:36:11;;;;;;;18.88;16.88;;;;;;;21.83;59.82;95044.63;5108177;28;20039;-75
2022/06/29 06:38:37;;;;;;;10.63;7.60;;;;;;;21.80;59.22;95041.53;5088770;28;20679;-74
2022/06/29 06:43:46;;;;;;;8.50;7.00;;;;;;;22.13;60.14;95044.44;5108872;28;20466;-73
2022/06/29 06:46:11;;;;;;;13.55;10.00;;;;;;;22.22;58.98;95039.84;5107118;28;20024;-74
2022/06/29 06:48:37;;;;;;;30.50;23.73;;;;;;;22.36;59.48;95027.53;5109784;28;20476;-73
2022/06/29 06:51:02;;;;;;;145.95;107.10;;;;;;;22.53;60.59;95027.00;5107368;28;20405;-74
2022/06/29 06:53:28;;;;;;;13.27;9.48;;;;;;;22.58;58.38;95038.84;5108144;28;20032;-73
2022/06/29 06:55:53;;;;;;;9.95;7.22;;;;;;;22.61;58.06;95044.56;5095521;28;20039;-73
2022/06/29 06:58:19;;;;;;;8.52;7.63;;;;;;;22.74;59.96;95044.63;5112294;28;20028;-73
2022/06/29 07:00:44;;;;;;;11.90;7.03;;;;;;;22.92;57.36;95045.91;5107552;28;20031;-73
2022/06/29 07:03:10;;;;;;;9.07;7.18;;;;;;;23.02;58.58;95051.69;5107459;28;20583;-73
2022/06/29 07:05:35;;;;;;;7.40;6.38;;;;;;;23.18;58.96;95047.91;5092739;28;20463;-73
2022/06/29 07:08:00;;;;;;;6.97;6.30;;;;;;;23.40;57.40;95048.53;5105322;28;20039;-72
2022/06/29 07:10:26;;;;;;;10.30;6.68;;;;;;;23.62;55.89;95041.22;5089104;28;20036;-73
2022/06/29 07:12:51;;;;;;;10.93;7.43;;;;;;;23.69;56.72;95041.25;5108606;28;20031;-73
2022/06/29 07:15:17;;;;;;;10.52;6.90;;;;;;;23.75;58.53;95040.47;5109014;28;20085;-73
2022/06/29 07:17:43;;;;;;;8.30;7.43;;;;;;;23.75;56.89;95030.69;5107059;28;20524;-73
2022/06/29 07:20:09;;;;;;;9.02;8.13;;;;;;;23.94;55.40;95039.66;5108395;28;20039;-73
2022/06/29 07:22:35;;;;;;;13.30;9.38;;;;;;;23.98;55.79;95034.75;5106425;28;20031;-73
2022/06/29 07:25:00;;;;;;;11.23;8.55;;;;;;;24.01;54.97;95026.38;5074146;28;20380;-73
2022/06/29 07:27:26;;;;;;;10.55;8.98;;;;;;;23.83;54.46;95024.34;5092191;28;20098;-74
2022/06/29 07:29:52;;;;;;;11.45;8.57;;;;;;;23.85;55.82;95031.09;5111079;28;20485;-74
2022/06/29 07:32:18;;;;;;;9.32;8.38;;;;;;;23.79;55.31;95021.31;5109645;28;20055;-74
2022/06/29 07:34:44;;;;;;;14.20;8.70;;;;;;;23.84;54.55;95036.59;5092153;28;20070;-74
2022/06/29 07:37:10;;;;;;;13.57;8.38;;;;;;;23.75;57.50;95011.31;5092275;28;20477;-74
2022/06/29 07:39:36;;;;;;;12.30;8.55;;;;;;;24.03;57.17;95025.16;5110211;28;20473;-74
2022/06/29 07:42:01;;;;;;;14.80;8.77;;;;;;;24.14;54.32;95029.03;5108978;28;20043;-74
2022/06/29 07:44:27;;;;;;;10.23;8.23;;;;;;;24.23;56.43;95021.66;5108970;28;20039;-74
2022/06/29 07:46:52;;;;;;;14.82;9.80;;;;;;;24.39;55.07;95025.72;5110444;28;20027;-74
2022/06/29 07:49:17;;;;;;;13.23;9.88;;;;;;;24.52;54.74;95023.91;5110621;28;20028;-74
2022/06/29 07:51:43;;;;;;;14.50;8.43;;;;;;;24.53;56.12;95012.25;5109528;28;20027;-74
2022/06/29 07:54:08;;;;;;;12.93;9.68;;;;;;;24.75;56.12;95015.44;5091965;28;20032;-74
2022/06/29 07:56:36;;;;;;;16.25;10.07;;;;;;;24.55;52.37;95014.69;5077229;28;20023;-74
2022/06/29 07:59:02;;;;;;;13.55;9.02;;;;;;;24.62;53.49;95001.38;5111166;28;20064;-74
2022/06/29 08:01:27;;;;;;;11.38;7.90;;;;;;;24.74;53.68;95007.69;5111104;28;20039;-74
2022/06/29 08:03:54;;;;;;;13.38;8.57;;;;;;;24.83;55.46;95014.41;5094090;28;20019;-74
2022/06/29 08:06:19;;;;;;;12.10;9.35;;;;;;;24.98;54.26;95001.63;5077712;28;20031;-74
2022/06/29 08:08:45;;;;;;;9.77;8.85;;;;;;;25.22;54.52;95009.94;5093882;28;20028;-74
2022/06/29 08:11:10;;;;;;;11.88;9.75;;;;;;;25.20;53.18;94990.72;5093935;28;20043;-74
2022/06/29 08:13:38;;;;;;;13.50;10.15;;;;;;;25.44;52.67;94997.13;5112188;28;20122;-74
2022/06/29 08:16:04;;;;;;;13.32;8.52;;;;;;;25.49;53.25;94991.16;5110659;28;20055;-74
2022/06/29 08:18:30;;;;;;;16.95;9.27;;;;;;;25.52;54.03;94998.69;5093835;28;20023;-74
2022/06/29 08:20:55;;;;;;;12.35;9.43;;;;;;;25.64;52.81;95003.13;5110906;28;20039;-74
2022/06/29 08:23:20;;;;;;;14.18;7.80;;;;;;;25.75;50.86;95008.78;5110757;28;20031;-74
2022/06/29 08:25:46;;;;;;;14.70;9.25;;;;;;;25.83;52.46;95009.34;5093851;28;20047;-75
2022/06/29 08:28:11;;;;;;;15.95;9.02;;;;;;;25.83;51.97;94993.41;5111907;28;20504;-74
2022/06/29 08:30:37;;;;;;;14.35;8.55;;;;;;;25.91;51.02;94994.97;5093725;28;20531;-74
2022/06/29 08:33:02;;;;;;;12.05;9.02;;;;;;;26.06;51.38;94999.94;5111814;28;20430;-74
2022/06/29 08:35:28;;;;;;;12.73;10.07;;;;;;;26.20;49.77;95006.78;5110378;28;20028;-74
2022/06/29 08:37:53;;;;;;;13.45;9.45;;;;;;;26.20;49.01;95012.09;5110358;28;20394;-74
2022/06/29 08:40:19;;;;;;;12.63;8.57;;;;;;;26.25;49.60;95006.94;5111914;28;20019;-74
2022/06/29 08:42:45;;;;;;;17.98;9.15;;;;;;;26.25;50.93;95004.28;5110332;28;20038;-74
2022/06/29 08:45:11;;;;;;;8.68;7.30;;;;;;;26.28;47.78;94998.50;5110316;28;20028;-74
2022/06/29 08:47:37;;;;;;;11.32;6.95;;;;;;;26.27;48.52;94990.72;5144665;27;20059;-74
2022/06/29 08:50:06;;;;;;;9.60;7.03;;;;;;;26.48;47.75;95000.16;5111625;28;20495;-74
2022/06/29 08:52:31;;;;;;;8.18;5.68;;;;;;;26.55;45.61;94995.63;5111662;28;20511;-74
2022/06/29 08:54:57;;;;;;;8.10;5.35;;;;;;;26.72;46.54;95011.81;5093280;28;20039;-74
2022/06/29 08:57:23;;;;;;;6.13;5.03;;;;;;;26.81;43.49;94999.81;5093192;28;20027;-74
2022/06/29 08:59:51;;;;;;;9.82;6.10;;;;;;;27.00;46.10;95021.13;5110444;28;20032;-74
2022/06/29 09:02:17;;;;;;;6.75;5.07;;;;;;;27.06;44.67;94998.88;5110109;28;20084;-75
2022/06/29 09:04:42;;;;;;;12.57;5.32;;;;;;;27.12;43.19;94998.78;5110218;28;20020;-74
2022/06/29 09:07:07;;;;;;;7.07;4.65;;;;;;;27.27;45.05;94995.75;5110003;28;20085;-75
2022/06/29 09:09:59;;;;;;;9.45;4.53;;;;;;;27.40;44.84;94994.75;5111507;28;20039;-74
2022/06/29 09:12:25;;;;;;;6.70;4.80;;;;;;;27.43;43.22;94986.28;5109912;28;20461;-75
2022/06/29 09:14:50;;;;;;;4.75;4.28;;;;;;;27.58;42.53;94992.03;5127280;27;20397;-74
2022/06/29 09:17:16;;;;;;;7.57;4.68;;;;;;;27.70;42.87;94996.56;5126675;28;20044;-75
2022/06/29 09:19:44;;;;;;;8.23;5.07;;;;;;;27.82;43.34;94997.44;5111359;28;20408;-74
2022/06/29 09:22:09;;;;;;;8.63;4.63;;;;;;;27.89;42.99;94992.81;5127090;27;20028;-75
2022/06/29 09:24:35;;;;;;;9.35;4.80;;;;;;;27.90;42.69;94988.28;5093067;28;20039;-75
2022/06/29 09:27:07;;;;;;;7.15;4.82;;;;;;;28.02;44.10;94997.91;5109884;28;20031;-75
2022/06/29 09:29:35;;;;;;;8.90;4.63;;;;;;;28.06;42.57;94996.41;5110827;28;20032;-74
2022/06/29 09:32:01;;;;;;;6.97;4.70;;;;;;;28.06;40.22;95001.75;5126926;27;20508;-74
2022/06/29 09:34:27;;;;;;;8.57;4.78;;;;;;;28.07;40.16;94994.56;5111115;28;20044;-75
2022/06/29 09:36:56;;;;;;;6.68;4.57;;;;;;;28.03;42.16;95001.41;5092720;28;20028;-74
2022/06/29 09:39:41;;;;;;;9.53;4.47;;;;;;;28.05;41.47;95005.47;5109917;28;20454;-75
2022/06/29 09:42:12;;;;;;;7.05;4.43;;;;;;;28.03;40.54;94998.75;5110889;28;20086;-75
2022/06/29 09:44:37;;;;;;;7.10;4.85;;;;;;;28.13;39.12;95000.81;5076575;28;20039;-74
2022/06/29 09:47:08;;;;;;;5.70;4.50;;;;;;;28.18;40.00;94991.06;5109667;28;20027;-75
2022/06/29 09:49:35;;;;;;;5.28;4.40;;;;;;;28.19;41.11;94986.53;5096473;28;20039;-74
2022/06/29 09:52:01;;;;;;;8.73;4.68;;;;;;;28.24;39.85;94978.63;5113505;28;20396;-74
2022/06/29 09:54:37;;;;;;;7.75;4.40;;;;;;;28.29;39.18;94976.09;5113681;28;20058;-74
2022/06/29 09:57:03;;;;;;;7.45;4.30;;;;;;;28.34;38.16;94978.88;5113509;28;20070;-75
2022/06/29 10:02:35;;;;;;;8.93;5.22;;;;;;;28.46;41.89;94981.56;5128656;27;20026;-74
2022/06/29 10:05:04;;;;;;;8.30;4.72;;;;;;;28.50;38.87;94975.53;5114806;28;20085;-74
2022/06/29 10:07:30;;;;;;;6.50;4.60;;;;;;;28.49;38.67;94968.53;5130299;27;20024;-74
2022/06/29 10:09:59;;;;;;;8.02;4.60;;;;;;;28.54;39.54;94972.38;5096464;28;20166;-75
2022/06/29 10:15:40;;;;;;;7.07;4.40;;;;;;;28.66;37.43;94976.63;5113208;28;20508;-75
2022/06/29 10:18:36;;;;;;;6.20;4.18;;;;;;;28.58;38.47;94962.84;5114373;28;20102;-75
2022/06/29 10:21:02;;;;;;;6.30;4.20;;;;;;;28.60;38.79;94966.09;5098783;28;20547;-75
2022/06/29 10:23:47;;;;;;;8.85;4.32;;;;;;;28.66;37.92;94970.47;5147540;27;20038;-75
2022/06/29 10:26:28;;;;;;;6.20;3.72;;;;;;;28.78;37.62;94968.59;5114413;28;20420;-75
2022/06/29 10:29:16;;;;;;;7.05;3.63;;;;;;;28.82;38.06;94961.72;5114193;28;20084;-75
2022/06/29 10:32:00;;;;;;;5.47;3.60;;;;;;;28.79;35.75;94953.38;5113994;28;20408;-75
2022/06/29 10:34:31;;;;;;;6.45;3.80;;;;;;;28.81;37.40;94956.63;5114456;28;20055;-75
2022/06/29 10:37:11;;;;;;;5.47;3.25;;;;;;;28.83;37.24;94954.50;5113816;28;20057;-75
2022/06/29 10:39:45;;;;;;;5.20;3.10;;;;;;;28.92;37.63;94963.81;5112460;27;20024;-75
2022/06/29 10:45:08;;;;;;;3.88;3.47;;;;;;;29.04;37.01;94950.41;5106763;27;20058;-74
2022/06/29 10:47:34;;;;;;;7.53;3.47;;;;;;;29.07;36.49;94960.63;5117468;27;20026;-74
2022/06/29 10:50:25;;;;;;;5.03;3.10;;;;;;;29.05;35.77;94947.50;5101554;28;20035;-75
2022/06/29 10:52:55;;;;;;;6.03;3.05;;;;;;;29.02;33.44;94950.59;5112382;28;20027;-75
2022/06/29 10:55:21;;;;;;;5.97;2.92;;;;;;;29.02;33.39;94947.13;5114017;27;20128;-74
2022/06/29 10:57:47;;;;;;;6.03;2.97;;;;;;;29.12;36.86;94944.69;5122415;27;20139;-74
2022/06/29 11:00:25;;;;;;;7.00;3.00;;;;;;;29.18;33.48;94947.19;5112751;28;20043;-74
2022/06/29 11:02:50;;;;;;;7.43;2.80;;;;;;;29.13;33.03;94946.28;5117939;27;20059;-74
2022/06/29 11:05:16;;;;;;;5.10;3.05;;;;;;;29.00;34.23;94954.56;5122901;27;20497;-74
2022/06/29 11:13:13;;;;;;;3.70;3.15;;;;;;;29.00;33.65;94942.00;5121442;27;20051;-76
2022/06/29 11:18:11;;;;;;;4.90;3.70;;;;;;;29.07;33.17;94929.34;5123476;27;20023;-76
2022/06/29 11:20:36;;;;;;;4.70;3.17;;;;;;;28.91;34.04;94924.75;5123769;27;20023;-75
2022/06/29 11:23:02;;;;;;;16.20;8.48;;;;;;;28.91;38.00;94927.41;5119120;27;20100;-75
2022/06/29 11:25:34;;;;;;;5.72;3.10;;;;;;;28.76;36.62;94895.06;5123504;27;20030;-74
2022/06/29 11:28:00;;;;;;;5.45;3.40;;;;;;;28.83;32.72;94875.13;5119830;27;20035;-74
2022/06/29 11:30:25;;;;;;;4.13;3.20;;;;;;;29.04;33.17;94907.63;5077726;28;20032;-77
2022/06/29 11:32:51;;;;;;;4.70;3.13;;;;;;;29.01;33.63;94908.09;5094601;28;20023;-75
2022/06/29 11:35:18;;;;;;;5.18;3.03;;;;;;;28.92;34.18;94895.09;5117374;27;20039;-75
2022/06/29 11:37:53;;;;;;;3.45;2.80;;;;;;;28.98;33.81;94898.69;5104023;27;20027;-75
2022/06/29 11:40:34;;;;;;;4.45;3.30;;;;;;;29.11;34.55;94892.25;5121107;27;20050;-75
2022/06/29 11:43:05;;;;;;;3.85;3.10;;;;;;;29.11;33.04;94897.59;5113521;27;20031;-75
2022/06/29 11:45:48;;;;;;;6.05;2.80;;;;;;;29.07;34.76;94885.75;5124106;27;20035;-75
2022/06/29 11:48:21;;;;;;;5.50;2.85;;;;;;;29.20;35.31;94900.69;5106808;28;20488;-75
2022/06/29 11:50:49;;;;;;;4.60;3.22;;;;;;;29.20;35.71;94896.16;5090504;28;20038;-74
2022/06/29 11:53:44;;;;;;;4.25;3.00;;;;;;;29.28;33.65;94898.44;5107429;28;20063;-74